createdAt,value
2018-05-15T00:01:05.350Z,96160.45
2018-05-15T00:04:28.625Z,96144.89
2018-05-15T00:07:51.914Z,96139.84
2018-05-15T00:11:15.206Z,96144.30
2018-05-15T00:14:38.510Z,96157.17
2018-05-15T00:18:01.851Z,96147.17
2018-05-15T00:21:25.137Z,96153.47
2018-05-15T00:24:48.436Z,96140.77
2018-05-15T00:28:11.772Z,96142.06
2018-05-15T00:31:35.060Z,96132.27
2018-05-15T00:34:59.110Z,96137.23
2018-05-15T00:38:23.176Z,96134.77
2018-05-15T00:41:46.516Z,96138.88
2018-05-15T00:45:09.802Z,96134.03
2018-05-15T00:48:33.146Z,96129.94
2018-05-15T00:51:57.254Z,96121.23
2018-05-15T00:55:45.438Z,96121.42
2018-05-15T00:59:09.566Z,96117.71
2018-05-15T01:02:32.898Z,96116.65
2018-05-15T01:05:56.190Z,96122.40
2018-05-15T01:09:19.469Z,96120.05
2018-05-15T01:12:42.832Z,96121.67
2018-05-15T01:16:06.187Z,96113.47
2018-05-15T01:19:29.543Z,96116.80
2018-05-15T01:22:52.834Z,96115.87
2018-05-15T01:26:16.217Z,96117.00
2018-05-15T01:29:39.580Z,96115.98
2018-05-15T01:33:03.642Z,96120.81
2018-05-15T01:36:26.972Z,96119.67
2018-05-15T01:39:50.257Z,96125.55
2018-05-15T01:43:13.544Z,96113.13
2018-05-15T01:46:36.852Z,96119.11
2018-05-15T01:50:00.193Z,96112.63
2018-05-15T01:53:23.470Z,96106.63
2018-05-15T01:56:47.550Z,96115.46
2018-05-15T02:00:10.854Z,96116.70
2018-05-15T02:03:34.189Z,96122.40
2018-05-15T02:06:57.469Z,96124.69
2018-05-15T02:10:20.759Z,96127.59
2018-05-15T02:13:44.040Z,96128.65
2018-05-15T02:17:07.333Z,96128.03
2018-05-15T02:20:30.623Z,96131.25
2018-05-15T02:23:53.915Z,96127.58
2018-05-15T02:27:17.267Z,96132.64
2018-05-15T02:30:41.342Z,96128.74
2018-05-15T02:34:05.465Z,96120.87
2018-05-15T02:37:28.787Z,96118.75
2018-05-15T02:40:52.079Z,96112.16
2018-05-15T02:44:15.338Z,96116.08
2018-05-15T02:47:38.646Z,96119.20
2018-05-15T02:51:01.979Z,96121.78
2018-05-15T02:54:25.285Z,96123.83
2018-05-15T02:57:48.569Z,96126.72
2018-05-15T03:01:11.868Z,96136.76
2018-05-15T03:04:35.232Z,96136.56
2018-05-15T03:07:58.563Z,96137.32
2018-05-15T03:11:21.845Z,96134.22
2018-05-15T03:14:45.137Z,96139.05
2018-05-15T03:18:08.481Z,96143.31
2018-05-15T03:21:32.568Z,96140.04
2018-05-15T03:24:55.842Z,96141.05
2018-05-15T03:28:19.149Z,96143.89
2018-05-15T03:31:42.415Z,96143.27
2018-05-15T03:35:05.707Z,96138.94
2018-05-15T03:38:29.002Z,96143.37
2018-05-15T03:41:52.717Z,96142.06
2018-05-15T03:45:16.001Z,96143.83
2018-05-15T03:48:39.414Z,96140.55
2018-05-15T03:52:03.506Z,96149.52
2018-05-15T03:55:27.556Z,96145.92
2018-05-15T03:58:50.906Z,96143.30
2018-05-15T04:02:32.004Z,96148.87
2018-05-15T04:06:13.277Z,96152.02
2018-05-15T04:09:36.591Z,96154.94
2018-05-15T04:12:59.930Z,96155.05
2018-05-15T04:16:24.092Z,96157.69
2018-05-15T04:19:47.369Z,96145.22
2018-05-15T04:23:10.663Z,96154.52
2018-05-15T04:26:34.097Z,96154.59
2018-05-15T04:29:57.389Z,96163.55
2018-05-15T04:33:20.731Z,96165.47
2018-05-15T04:36:44.015Z,96169.10
2018-05-15T04:40:07.311Z,96177.33
2018-05-15T04:43:30.727Z,96174.86
2018-05-15T04:46:55.553Z,96186.00
2018-05-15T04:50:19.203Z,96190.39
2018-05-15T04:53:42.549Z,96187.27
2018-05-15T04:57:05.825Z,96190.80
2018-05-15T05:00:29.903Z,96179.41
2018-05-15T05:03:54.026Z,96180.14
2018-05-15T05:07:17.389Z,96178.03
2018-05-15T05:10:40.729Z,96181.44
2018-05-15T05:14:04.129Z,96188.49
2018-05-15T05:17:28.249Z,96190.12
2018-05-15T05:20:51.577Z,96186.70
2018-05-15T05:24:14.903Z,96192.45
2018-05-15T05:27:38.256Z,96190.92
2018-05-15T05:31:01.585Z,96186.92
2018-05-15T05:34:24.867Z,96190.59
2018-05-15T05:37:48.225Z,96186.71
2018-05-15T05:41:11.528Z,96190.41
2018-05-15T05:44:34.884Z,96189.56
2018-05-15T05:47:58.239Z,96184.14
2018-05-15T05:51:21.564Z,96190.17
2018-05-15T05:54:44.849Z,96192.28
2018-05-15T05:58:08.132Z,96192.13
2018-05-15T06:01:32.180Z,96196.58
2018-05-15T06:04:55.447Z,96196.54
2018-05-15T06:08:18.709Z,96198.11
2018-05-15T06:11:42.887Z,96193.84
2018-05-15T06:15:06.172Z,96191.13
2018-05-15T06:18:29.434Z,96184.63
2018-05-15T06:21:52.721Z,96191.05
2018-05-15T06:25:16.763Z,96194.07
2018-05-15T06:28:40.050Z,96198.34
2018-05-15T06:32:03.314Z,96199.45
2018-05-15T06:35:26.588Z,96200.74
2018-05-15T06:38:49.894Z,96200.27
2018-05-15T06:42:13.183Z,96195.63
2018-05-15T06:45:36.445Z,96197.79
2018-05-15T06:48:59.719Z,96200.30
2018-05-15T06:52:22.988Z,96203.64
2018-05-15T06:55:47.012Z,96198.45
2018-05-15T06:59:10.312Z,96196.24
2018-05-15T07:02:33.639Z,96205.72
2018-05-15T07:05:57.682Z,96202.08
2018-05-15T07:09:20.970Z,96202.02
2018-05-15T07:12:44.403Z,96196.42
2018-05-15T07:16:07.666Z,96200.25
2018-05-15T07:19:30.991Z,96196.28
2018-05-15T07:22:54.250Z,96193.59
2018-05-15T07:26:17.516Z,96194.41
2018-05-15T07:29:40.798Z,96196.11
2018-05-15T07:33:04.911Z,96205.87
2018-05-15T07:36:28.119Z,96201.41
2018-05-15T07:39:51.408Z,96213.59
2018-05-15T07:43:14.703Z,96223.58
2018-05-15T07:46:37.984Z,96227.44
2018-05-15T07:50:01.313Z,96230.65
2018-05-15T07:53:25.489Z,96234.11
2018-05-15T07:56:48.774Z,96237.77
2018-05-15T08:00:20.002Z,96230.70
2018-05-15T08:03:43.282Z,96234.08
2018-05-15T08:07:06.569Z,96230.52
2018-05-15T08:10:29.860Z,96232.67
2018-05-15T08:13:53.151Z,96230.52
2018-05-15T08:17:17.949Z,96233.50
2018-05-15T08:20:41.224Z,96249.17
2018-05-15T08:24:04.483Z,96257.42
2018-05-15T08:27:28.535Z,96253.89
2018-05-15T08:30:51.852Z,96259.16
2018-05-15T08:34:15.089Z,96260.98
2018-05-15T08:37:38.468Z,96263.12
2018-05-15T08:41:01.717Z,96265.87
2018-05-15T08:44:25.011Z,96263.89
2018-05-15T08:47:48.274Z,96262.78
2018-05-15T08:51:12.338Z,96261.90
2018-05-15T08:54:36.376Z,96260.30
2018-05-15T08:57:59.666Z,96250.09
2018-05-15T09:01:22.953Z,96247.67
2018-05-15T09:04:46.248Z,96246.92
2018-05-15T09:08:09.663Z,96245.53
2018-05-15T09:11:32.943Z,96254.81
2018-05-15T09:14:56.228Z,96261.45
2018-05-15T09:18:19.506Z,96257.66
2018-05-15T09:21:42.813Z,96260.86
2018-05-15T09:25:06.110Z,96257.20
2018-05-15T09:28:29.374Z,96255.19
2018-05-15T09:31:52.690Z,96253.72
2018-05-15T09:35:16.732Z,96262.36
2018-05-15T09:38:40.019Z,96255.89
2018-05-15T09:42:03.303Z,96257.38
2018-05-15T09:45:26.574Z,96246.35
2018-05-15T09:48:49.881Z,96248.07
2018-05-15T09:52:13.162Z,96256.73
2018-05-15T09:55:36.416Z,96247.39
2018-05-15T09:59:00.502Z,96254.00
2018-05-15T10:02:24.540Z,96255.05
2018-05-15T10:05:47.826Z,96249.87
2018-05-15T10:09:11.113Z,96260.91
2018-05-15T10:12:34.437Z,96257.27
2018-05-15T10:15:58.480Z,96262.44
2018-05-15T10:19:21.755Z,96263.41
2018-05-15T10:22:45.037Z,96260.87
2018-05-15T10:26:08.318Z,96267.64
2018-05-15T10:29:32.358Z,96278.98
2018-05-15T10:32:55.648Z,96278.84
2018-05-15T10:36:18.936Z,96271.99
2018-05-15T10:39:42.210Z,96272.63
2018-05-15T10:43:05.497Z,96273.27
2018-05-15T10:46:28.776Z,96269.87
2018-05-15T10:49:52.051Z,96276.16
2018-05-15T10:53:15.310Z,96280.81
2018-05-15T10:56:38.809Z,96286.54
2018-05-15T11:00:02.879Z,96285.97
2018-05-15T11:03:26.924Z,96285.13
2018-05-15T11:06:51.168Z,96297.16
2018-05-15T11:10:14.466Z,96305.53
2018-05-15T11:13:37.729Z,96319.84
2018-05-15T11:17:01.008Z,96350.02
2018-05-15T11:20:41.788Z,96339.96
2018-05-15T11:28:08.562Z,96314.70
2018-05-15T11:31:32.646Z,96299.59
2018-05-15T11:34:56.688Z,96293.61
2018-05-15T11:38:19.972Z,96292.86
2018-05-15T11:41:43.310Z,96282.73
2018-05-15T11:45:06.559Z,96277.20
2018-05-15T11:48:30.442Z,96268.17
2018-05-15T11:51:53.826Z,96262.35
2018-05-15T11:55:16.496Z,96272.18
2018-05-15T11:58:40.561Z,96265.02
2018-05-15T12:02:03.841Z,96260.30
2018-05-15T12:05:27.108Z,96259.70
2018-05-15T12:08:50.389Z,96253.65
2018-05-15T12:12:13.658Z,96246.41
2018-05-15T12:15:37.731Z,96246.16
2018-05-15T12:19:01.780Z,96244.45
2018-05-15T12:22:25.214Z,96240.17
2018-05-15T12:25:48.494Z,96234.82
2018-05-15T12:29:11.770Z,96222.78
2018-05-15T12:32:35.076Z,96223.06
2018-05-15T12:35:58.390Z,96237.74
2018-05-15T12:39:22.429Z,96248.44
2018-05-15T12:42:45.700Z,96255.90
2018-05-15T12:46:09.028Z,96252.30
2018-05-15T12:49:33.062Z,96256.48
2018-05-15T12:52:56.332Z,96274.03
2018-05-15T12:56:20.378Z,96271.23
2018-05-15T12:59:43.644Z,96274.51
2018-05-15T13:03:07.696Z,96284.98
2018-05-15T13:06:30.996Z,96279.64
2018-05-15T13:09:55.774Z,96277.65
2018-05-15T13:13:19.057Z,96289.57
2018-05-15T13:16:42.335Z,96289.58
2018-05-15T13:20:05.619Z,96295.16
2018-05-15T13:23:28.892Z,96311.73
2018-05-15T13:26:52.166Z,96310.06
2018-05-15T13:30:16.207Z,96319.14
2018-05-15T13:33:39.472Z,96323.57
2018-05-15T13:37:02.742Z,96325.60
2018-05-15T13:40:26.779Z,96333.13
2018-05-15T13:43:50.044Z,96333.69
2018-05-15T13:47:13.314Z,96339.89
2018-05-15T13:50:38.329Z,96349.73
2018-05-15T13:54:01.608Z,96349.95
2018-05-15T13:57:24.889Z,96352.58
2018-05-15T14:00:48.799Z,96349.80
2018-05-15T14:04:12.859Z,96355.19
2018-05-15T14:07:36.925Z,96359.48
2018-05-15T14:11:00.207Z,96360.70
2018-05-15T14:14:23.485Z,96352.65
2018-05-15T14:17:46.760Z,96338.40
2018-05-15T14:21:10.040Z,96338.81
2018-05-15T14:24:33.300Z,96330.41
2018-05-15T14:27:57.335Z,96335.72
2018-05-15T14:31:21.409Z,96331.36
2018-05-15T14:34:46.164Z,96335.02
2018-05-15T14:38:09.435Z,96341.55
2018-05-15T14:48:59.898Z,96329.98
2018-05-15T14:52:23.177Z,96324.52
2018-05-15T14:55:46.465Z,96282.02
2018-05-15T14:59:09.769Z,96261.78
2018-05-15T15:02:33.878Z,96269.59
2018-05-15T15:05:57.165Z,96271.19
2018-05-15T15:09:20.503Z,96286.14
2018-05-15T15:12:43.775Z,96295.47
2018-05-15T15:16:07.851Z,96309.89
2018-05-15T15:19:32.629Z,96316.31
2018-05-15T15:22:55.916Z,96330.48
2018-05-15T15:26:19.257Z,96334.60
2018-05-15T15:29:42.535Z,96336.28
2018-05-15T15:33:05.846Z,96339.51
2018-05-15T15:36:29.195Z,96342.42
2018-05-15T15:39:52.569Z,96331.48
2018-05-15T15:43:15.899Z,96318.69
2018-05-15T15:46:39.204Z,96313.30
2018-05-15T15:50:02.501Z,96317.91
2018-05-15T15:53:25.778Z,96321.70
2018-05-15T15:56:49.068Z,96331.31
2018-05-15T16:00:12.337Z,96334.07
2018-05-15T16:03:35.690Z,96318.92
2018-05-15T16:06:59.083Z,96319.76
2018-05-15T16:10:23.159Z,96317.34
2018-05-15T16:13:46.480Z,96327.28
2018-05-15T16:17:09.885Z,96334.81
2018-05-15T16:20:33.914Z,96335.74
2018-05-15T16:23:57.210Z,96335.16
2018-05-15T16:27:20.497Z,96323.51
2018-05-15T16:30:43.809Z,96311.53
2018-05-15T16:34:07.985Z,96309.97
2018-05-15T16:37:32.140Z,96305.86
2018-05-15T16:40:55.471Z,96299.41
2018-05-15T16:44:18.927Z,96305.14
2018-05-15T16:47:43.054Z,96309.23
2018-05-15T16:51:06.423Z,96303.58
2018-05-15T16:54:30.463Z,96304.36
2018-05-15T16:57:53.773Z,96293.84
2018-05-15T17:01:17.117Z,96302.58
2018-05-15T17:04:40.447Z,96315.67
2018-05-15T17:08:04.730Z,96310.56
2018-05-15T17:11:28.007Z,96304.89
2018-05-15T17:14:51.385Z,96317.13
2018-05-15T17:18:14.634Z,96338.49
2018-05-15T17:21:37.907Z,96346.82
2018-05-15T17:25:01.237Z,96359.19
2018-05-15T17:28:25.353Z,96356.28
2018-05-15T17:31:48.755Z,96368.66
2018-05-15T17:35:12.902Z,96374.44
2018-05-15T17:38:36.243Z,96391.73
2018-05-15T17:41:59.583Z,96403.41
2018-05-15T17:45:22.935Z,96408.16
2018-05-15T17:48:46.242Z,96412.98
2018-05-15T17:52:09.592Z,96417.05
2018-05-15T17:55:32.981Z,96432.73
2018-05-15T17:58:57.092Z,96450.27
2018-05-15T18:02:20.414Z,96463.39
2018-05-15T18:05:44.493Z,96469.06
2018-05-15T18:09:08.747Z,96480.55
2018-05-15T18:12:32.062Z,96485.83
2018-05-15T18:15:55.407Z,96480.24
2018-05-15T18:19:20.058Z,96486.22
2018-05-15T18:22:43.428Z,96495.68
2018-05-15T18:26:06.821Z,96495.87
2018-05-15T18:29:30.968Z,96509.25
2018-05-15T18:32:55.192Z,96517.13
2018-05-15T18:36:18.498Z,96524.87
2018-05-15T18:44:13.244Z,96527.30
2018-05-15T18:47:36.617Z,96535.77
2018-05-15T18:51:00.869Z,96539.97
2018-05-15T18:54:24.970Z,96544.42
2018-05-15T18:57:48.319Z,96545.34
2018-05-15T19:01:11.756Z,96547.77
2018-05-15T19:04:35.144Z,96544.86
2018-05-15T19:07:59.226Z,96549.80
2018-05-15T19:11:22.540Z,96542.91
2018-05-15T19:14:45.841Z,96538.95
2018-05-15T19:18:09.197Z,96532.47
2018-05-15T19:21:32.694Z,96525.76
2018-05-15T19:24:56.027Z,96523.58
2018-05-15T19:28:20.139Z,96514.23
2018-05-15T19:31:43.417Z,96518.01
2018-05-15T19:35:07.518Z,96512.69
2018-05-15T19:38:31.009Z,96504.77
2018-05-15T19:41:54.300Z,96495.02
2018-05-15T19:45:17.671Z,96513.27
2018-05-15T19:48:41.011Z,96529.64
2018-05-15T19:52:04.378Z,96527.98
2018-05-15T19:55:27.731Z,96521.61
2018-05-15T19:58:51.090Z,96523.83
2018-05-15T20:02:14.440Z,96527.21
2018-05-15T20:05:37.811Z,96534.59
2018-05-15T20:09:01.377Z,96545.17
2018-05-15T20:12:25.458Z,96542.50
2018-05-15T20:15:48.826Z,96548.89
2018-05-15T20:19:12.179Z,96548.92
2018-05-15T20:22:35.544Z,96544.88
2018-05-15T20:25:58.877Z,96537.84
2018-05-15T20:29:22.314Z,96518.85
2018-05-15T20:32:45.651Z,96511.75
2018-05-15T20:36:08.955Z,96509.70
2018-05-15T20:39:32.303Z,96511.71
2018-05-15T20:42:55.617Z,96510.80
2018-05-15T20:46:18.963Z,96513.55
2018-05-15T20:49:42.318Z,96528.72
2018-05-15T20:53:05.657Z,96529.73
2018-05-15T20:56:28.951Z,96529.65
2018-05-15T20:59:52.301Z,96528.58
2018-05-15T21:03:15.612Z,96532.58
2018-05-15T21:06:39.045Z,96534.54
2018-05-15T21:10:02.517Z,96534.22
2018-05-15T21:13:25.807Z,96535.03
2018-05-15T21:16:49.169Z,96539.66
2018-05-15T21:20:12.509Z,96538.48
2018-05-15T21:23:35.946Z,96543.79
2018-05-15T21:26:59.230Z,96542.02
2018-05-15T21:30:22.522Z,96547.52
2018-05-15T21:33:45.865Z,96543.86
2018-05-15T21:37:09.246Z,96562.53
2018-05-15T21:40:32.590Z,96566.55
2018-05-15T21:43:55.907Z,96562.27
2018-05-15T21:47:19.233Z,96560.67
2018-05-15T21:50:42.602Z,96568.97
2018-05-15T21:54:05.939Z,96568.22
2018-05-15T21:57:29.227Z,96573.84
2018-05-15T22:00:52.965Z,96577.22
2018-05-15T22:04:16.306Z,96575.08
2018-05-15T22:11:30.215Z,96585.97
2018-05-15T22:15:12.539Z,96592.13
2018-05-15T22:18:53.872Z,96588.14
2018-05-15T22:22:16.439Z,96583.55
2018-05-15T22:25:39.801Z,96583.81
2018-05-15T22:29:03.145Z,96577.81
2018-05-15T22:32:26.496Z,96579.67
2018-05-15T22:35:49.787Z,96584.25
2018-05-15T22:39:13.128Z,96592.42
2018-05-15T22:42:36.495Z,96585.71
2018-05-15T22:45:59.800Z,96580.75
2018-05-15T22:49:23.156Z,96570.22
2018-05-15T22:52:46.501Z,96573.19
2018-05-15T22:56:09.859Z,96565.16
2018-05-15T22:59:33.204Z,96567.84
2018-05-15T23:02:56.508Z,96558.48
2018-05-15T23:06:19.934Z,96556.54
2018-05-15T23:09:44.018Z,96546.04
2018-05-15T23:13:07.418Z,96539.39
2018-05-15T23:16:30.766Z,96530.65
2018-05-15T23:19:54.075Z,96522.41
2018-05-15T23:23:17.359Z,96509.84
2018-05-15T23:26:40.677Z,96512.03
2018-05-15T23:30:04.870Z,96518.11
2018-05-15T23:33:28.164Z,96518.88
2018-05-15T23:36:51.626Z,96516.26
2018-05-15T23:40:16.511Z,96514.99
2018-05-15T23:43:40.546Z,96513.73
2018-05-15T23:47:04.654Z,96511.36
2018-05-15T23:50:28.072Z,96513.67
2018-05-15T23:53:51.354Z,96518.91
2018-05-15T23:57:14.708Z,96514.83
